Time;durP1;ratioP1;P1;durP2;ratioP2;P2;SDS_P1;SDS_P2;PMS_P1;PMS_P2;Temp;Humidity;BMP_temperature;BMP_pressure;BME280_temperature;BME280_humidity;BME280_pressure;Samples;Min_cycle;Max_cycle;Signal;HPM_P1;HPM_P2
2023/07/15 00:01:36;;;;;;;2.58;1.00;;;23.10;94.00;;;22.64;100.00;97027.25;5044203;28;20470;-75
2023/07/15 00:04:13;;;;;;;1.77;1.00;;;23.10;93.90;;;22.47;100.00;97017.56;5046976;28;20069;-76
2023/07/15 00:06:44;;;;;;;2.95;0.95;;;23.10;94.10;;;22.50;100.00;97025.16;5029735;28;20065;-76
2023/07/15 00:09:11;;;;;;;2.65;1.10;;;23.10;94.00;;;22.55;100.00;97022.88;5030767;28;20056;-76
2023/07/15 00:11:45;;;;;;;6.15;1.10;;;23.10;94.00;;;22.42;100.00;97025.09;5029189;28;20421;-75
2023/07/15 00:14:21;;;;;;;2.65;0.90;;;23.00;94.10;;;22.44;100.00;97026.63;5029051;28;20076;-75
2023/07/15 00:16:52;;;;;;;6.22;1.20;;;23.00;94.10;;;22.41;100.00;97024.25;5044715;28;20132;-75
2023/07/15 00:19:20;;;;;;;4.10;0.98;;;23.00;94.00;;;22.30;100.00;97017.41;5041858;28;20056;-76
2023/07/15 00:21:48;;;;;;;4.72;0.90;;;23.00;94.20;;;22.35;100.00;97014.28;5029718;28;20469;-75
2023/07/15 00:24:21;;;;;;;3.78;1.02;;;23.00;94.00;;;22.34;100.00;97016.13;5028821;28;20049;-76
2023/07/15 00:26:52;;;;;;;3.00;0.90;;;22.90;94.00;;;22.32;100.00;97020.72;5045052;28;20051;-76
2023/07/15 00:29:24;;;;;;;2.78;0.90;;;22.90;94.00;;;22.22;100.00;97024.44;5047516;28;20106;-75
2023/07/15 00:31:51;;;;;;;2.97;1.02;;;22.90;94.20;;;22.11;100.00;97014.91;5047676;28;20041;-75
2023/07/15 00:34:18;;;;;;;3.55;1.20;;;22.80;94.40;;;21.99;100.00;97016.13;5045597;28;20565;-76
2023/07/15 00:36:45;;;;;;;3.60;1.17;;;22.70;94.60;;;21.90;100.00;97023.13;5021548;28;20831;-75
2023/07/15 00:39:13;;;;;;;8.73;1.02;;;22.60;94.60;;;21.84;100.00;97013.97;5043268;28;20049;-76
2023/07/15 00:41:41;;;;;;;2.80;1.00;;;22.50;94.80;;;21.74;100.00;97012.41;5042753;28;20478;-75
2023/07/15 00:44:14;;;;;;;2.55;1.10;;;22.40;95.10;;;21.57;100.00;97017.47;5046415;28;20406;-75
2023/07/15 00:47:26;;;;;;;2.92;0.82;;;22.30;95.30;;;21.52;100.00;97019.72;5043323;28;20055;-75
2023/07/15 00:49:54;;;;;;;2.67;1.00;;;22.10;95.60;;;21.47;100.00;97022.00;5058085;28;20505;-75
2023/07/15 00:52:21;;;;;;;3.78;0.80;;;22.00;95.80;;;21.44;100.00;97024.91;5023103;28;20848;-75
2023/07/15 00:54:54;;;;;;;3.03;0.95;;;21.90;95.90;;;21.40;100.00;97021.75;5046519;28;20052;-75
2023/07/15 00:57:21;;;;;;;2.78;0.90;;;21.80;96.00;;;21.30;100.00;97023.56;5050311;28;20247;-75
2023/07/15 00:59:52;;;;;;;3.00;1.20;;;21.90;96.10;;;21.16;100.00;97029.31;5047994;28;20049;-75
2023/07/15 01:02:20;;;;;;;4.45;1.02;;;21.80;96.10;;;21.12;100.00;97025.31;5027204;28;20041;-75
2023/07/15 01:04:49;;;;;;;2.78;0.95;;;21.80;96.10;;;21.07;100.00;97023.94;5027845;28;20067;-75
2023/07/15 01:07:17;;;;;;;2.33;1.10;;;21.80;96.30;;;21.09;100.00;97021.97;5027411;28;20076;-75
2023/07/15 01:09:46;;;;;;;4.53;1.05;;;21.70;96.30;;;20.88;100.00;97024.81;5044053;28;20057;-75
2023/07/15 01:12:14;;;;;;;3.63;1.00;;;21.70;96.50;;;20.79;100.00;97027.50;5045041;28;20113;-75
2023/07/15 01:14:43;;;;;;;3.75;1.02;;;21.60;96.70;;;20.71;100.00;97030.84;5045677;28;20053;-76
2023/07/15 01:17:10;;;;;;;2.88;1.25;;;21.60;96.90;;;20.60;100.00;97028.38;5042799;28;20053;-75
2023/07/15 01:19:38;;;;;;;1.58;0.85;;;21.50;96.90;;;20.59;100.00;97030.16;5045041;28;20137;-75
2023/07/15 01:22:07;;;;;;;3.55;1.00;;;21.40;97.20;;;20.45;100.00;97038.47;5041544;28;20057;-76
2023/07/15 01:24:35;;;;;;;3.28;0.90;;;21.30;97.40;;;20.34;100.00;97034.19;5043233;28;20064;-75
2023/07/15 01:27:07;;;;;;;3.38;1.00;;;21.20;97.60;;;20.30;100.00;97029.31;5044670;28;20156;-76
2023/07/15 01:29:38;;;;;;;2.00;0.90;;;21.10;97.80;;;20.31;100.00;97026.56;5037452;28;20081;-76
2023/07/15 01:32:06;;;;;;;1.98;1.10;;;21.10;97.90;;;20.27;100.00;97019.91;5043649;28;20515;-76
2023/07/15 01:34:33;;;;;;;3.65;1.20;;;21.10;98.00;;;20.44;100.00;97016.56;5025203;28;20546;-75
2023/07/15 01:37:01;;;;;;;3.17;1.10;;;21.00;97.70;;;20.35;100.00;97019.22;5043434;28;20057;-75
2023/07/15 01:39:28;;;;;;;2.75;1.02;;;21.00;97.90;;;20.29;100.00;97025.88;5043741;28;20094;-75
2023/07/15 01:41:55;;;;;;;1.77;1.10;;;21.00;97.90;;;20.23;100.00;97016.72;5048992;28;20118;-75
2023/07/15 01:44:24;;;;;;;3.50;1.10;;;21.00;98.00;;;20.08;100.00;97022.56;5029218;28;20076;-75
2023/07/15 01:46:51;;;;;;;3.45;1.15;;;20.90;98.20;;;20.03;100.00;97013.25;5042391;28;20264;-75
2023/07/15 01:49:19;;;;;;;2.75;1.10;;;20.90;98.40;;;19.91;100.00;97011.72;5040847;28;20580;-75
2023/07/15 01:51:47;;;;;;;3.28;1.00;;;20.80;98.80;;;19.73;100.00;97011.56;5045113;28;20041;-75
2023/07/15 01:54:14;;;;;;;4.40;1.05;;;20.60;99.20;;;19.62;100.00;97014.28;5040860;28;20513;-76
2023/07/15 01:56:41;;;;;;;3.13;1.15;;;20.50;99.90;;;19.52;100.00;97001.06;5042887;28;20045;-76
2023/07/15 01:59:10;;;;;;;5.40;1.10;;;20.30;99.90;;;19.59;100.00;96999.59;5040489;28;20072;-76
2023/07/15 02:01:40;;;;;;;5.82;1.20;;;20.20;99.90;;;19.53;100.00;96997.50;5042512;28;20045;-76
2023/07/15 02:04:07;;;;;;;2.00;1.10;;;20.10;99.90;;;19.40;100.00;96991.66;5041236;28;20041;-76
2023/07/15 02:06:35;;;;;;;4.30;1.00;;;20.00;99.90;;;19.31;100.00;96988.00;5042405;28;20136;-76
2023/07/15 02:09:07;;;;;;;5.35;1.20;;;19.90;99.90;;;19.21;100.00;96989.78;5045154;28;20098;-76
2023/07/15 02:11:35;;;;;;;3.22;1.00;;;19.80;99.90;;;19.00;100.00;96981.97;5038759;28;20053;-76
2023/07/15 02:14:05;;;;;;;3.28;1.13;;;19.80;99.90;;;18.96;100.00;96983.19;5043602;28;20459;-76
2023/07/15 02:16:32;;;;;;;1.90;1.00;;;19.70;99.90;;;18.97;100.00;96983.03;5044830;28;20118;-76
2023/07/15 02:19:00;;;;;;;3.50;1.08;;;19.70;99.90;;;18.98;100.00;96982.09;5042449;28;20075;-76
2023/07/15 02:21:27;;;;;;;7.05;1.30;;;19.60;99.90;;;18.99;100.00;96981.13;5041330;28;20791;-76
2023/07/15 02:23:54;;;;;;;5.78;1.05;;;19.60;99.90;;;19.06;100.00;96980.59;5043294;28;20073;-76
2023/07/15 02:26:21;;;;;;;4.97;1.30;;;19.60;99.90;;;19.06;100.00;96983.22;5041716;28;20057;-76
2023/07/15 02:28:48;;;;;;;3.45;1.15;;;19.60;99.90;;;19.10;100.00;96984.63;5023941;28;20053;-76
2023/07/15 02:31:15;;;;;;;5.72;1.00;;;19.70;99.90;;;19.09;100.00;96983.81;5027887;28;20084;-76
2023/07/15 02:33:43;;;;;;;3.88;1.08;;;19.70;99.90;;;19.25;100.00;96979.81;5038550;28;20049;-76
2023/07/15 02:36:11;;;;;;;3.78;1.20;;;19.80;99.90;;;19.30;100.00;96973.19;5042041;28;20073;-76
2023/07/15 02:38:39;;;;;;;2.95;1.20;;;19.90;99.90;;;19.27;100.00;96970.00;5039588;28;20183;-76
2023/07/15 02:41:06;;;;;;;3.03;1.20;;;20.00;99.90;;;19.31;100.00;96971.41;5042730;28;20141;-75
2023/07/15 02:43:33;;;;;;;6.00;1.13;;;20.00;99.90;;;19.45;100.00;96976.28;5023772;28;20146;-76
2023/07/15 02:46:00;;;;;;;3.53;1.17;;;20.00;99.90;;;19.47;100.00;96969.06;5056938;28;20091;-76
2023/07/15 02:48:28;;;;;;;2.92;1.10;;;20.00;99.90;;;19.54;100.00;96962.28;5028340;28;20521;-75
2023/07/15 02:50:56;;;;;;;3.15;0.90;;;20.00;99.90;;;19.49;100.00;96966.31;5043113;28;20084;-75
2023/07/15 02:53:23;;;;;;;2.03;1.00;;;20.00;99.90;;;19.50;100.00;96967.97;5044486;28;20159;-76
2023/07/15 02:55:51;;;;;;;3.03;0.98;;;20.00;99.90;;;19.35;100.00;96971.00;5044645;28;20057;-76
2023/07/15 02:58:18;;;;;;;4.13;1.13;;;19.90;99.90;;;19.36;100.00;96975.31;5043176;28;20065;-76
2023/07/15 03:00:48;;;;;;;1.83;1.00;;;19.90;99.90;;;19.15;100.00;96975.34;5025628;28;20048;-76
2023/07/15 03:03:15;;;;;;;2.55;1.00;;;19.90;99.90;;;19.17;100.00;96975.25;5041531;28;20524;-76
2023/07/15 03:05:47;;;;;;;2.50;1.25;;;19.80;99.90;;;19.20;100.00;96973.19;5026615;28;21149;-76
2023/07/15 03:08:14;;;;;;;3.67;1.10;;;19.90;99.90;;;19.36;100.00;96967.41;5042475;28;20052;-76
2023/07/15 03:10:43;;;;;;;2.65;1.30;;;19.90;99.90;;;19.33;100.00;96956.31;5043162;28;20056;-76
2023/07/15 03:13:11;;;;;;;3.42;1.00;;;20.00;99.90;;;19.31;100.00;96963.50;5045379;28;20048;-76
2023/07/15 03:15:39;;;;;;;3.08;1.13;;;20.10;99.90;;;19.17;100.00;96969.97;5044857;28;20139;-76
2023/07/15 03:18:06;;;;;;;2.33;1.20;;;20.00;99.90;;;18.91;100.00;96967.81;5039999;28;20545;-76
2023/07/15 03:20:34;;;;;;;5.50;1.35;;;19.90;99.90;;;19.10;100.00;96979.38;5037466;28;20061;-76
2023/07/15 03:23:01;;;;;;;4.10;1.27;;;19.80;99.90;;;19.09;100.00;96975.06;5044622;28;20553;-76
2023/07/15 03:25:29;;;;;;;2.90;1.10;;;19.90;99.90;;;18.97;100.00;96971.69;5039043;28;20107;-76
2023/07/15 03:27:56;;;;;;;2.92;1.30;;;19.80;99.90;;;18.87;100.00;96984.81;5039627;28;20046;-76
2023/07/15 03:30:23;;;;;;;3.85;1.52;;;19.70;99.90;;;18.90;100.00;96981.09;5027600;28;20586;-75
2023/07/15 03:32:56;;;;;;;3.20;1.10;;;19.60;99.90;;;18.75;100.00;96985.84;5043817;28;20052;-76
2023/07/15 03:35:24;;;;;;;6.32;1.48;;;19.50;99.90;;;18.80;100.00;96996.81;5041324;28;20053;-73
2023/07/15 03:37:52;;;;;;;3.78;1.25;;;19.50;99.90;;;18.92;100.00;96989.69;5040749;28;20072;-76
2023/07/15 03:40:19;;;;;;;3.35;1.17;;;19.60;99.90;;;18.92;100.00;96985.25;5038847;28;21057;-75
2023/07/15 03:42:46;;;;;;;4.75;1.27;;;19.70;99.90;;;19.20;100.00;96994.22;5041522;28;20059;-76
2023/07/15 03:45:14;;;;;;;2.40;1.38;;;19.80;99.90;;;19.45;100.00;96999.97;5034174;28;20048;-75
2023/07/15 03:47:41;;;;;;;6.65;1.80;;;19.90;99.90;;;19.50;100.00;96996.91;5043130;28;20611;-73
2023/07/15 03:50:11;;;;;;;2.38;1.20;;;20.00;99.90;;;19.55;100.00;96998.19;5052194;28;20170;-74
2023/07/15 03:52:39;;;;;;;4.03;1.30;;;20.10;99.90;;;19.48;100.00;96991.81;5021148;28;20049;-74
2023/07/15 03:55:06;;;;;;;3.47;1.70;;;20.10;99.90;;;19.47;100.00;96994.56;5040268;28;20151;-75
2023/07/15 03:57:33;;;;;;;4.00;1.67;;;20.10;99.90;;;19.60;100.00;96995.97;5021712;28;20049;-76
2023/07/15 04:00:06;;;;;;;2.80;1.42;;;20.10;99.90;;;19.87;100.00;97002.44;5026572;28;20058;-75
2023/07/15 04:02:33;;;;;;;2.90;1.23;;;20.20;99.90;;;19.89;100.00;96997.88;5040004;28;20068;-76
2023/07/15 04:05:01;;;;;;;2.30;1.30;;;20.40;99.90;;;19.82;100.00;96994.94;5040383;28;20064;-76
2023/07/15 04:07:28;;;;;;;2.90;1.40;;;20.40;99.90;;;19.83;100.00;96985.25;5042858;28;20124;-75
2023/07/15 04:09:55;;;;;;;3.08;1.58;;;20.40;99.90;;;19.72;100.00;96983.56;5042229;28;20045;-75
2023/07/15 04:12:23;;;;;;;5.43;1.33;;;20.30;99.90;;;19.78;100.00;96983.00;5044464;28;20045;-76
2023/07/15 04:14:50;;;;;;;5.93;1.40;;;20.40;99.90;;;19.77;100.00;96973.44;5044143;28;20271;-75
2023/07/15 04:17:17;;;;;;;5.63;1.52;;;20.40;99.90;;;19.86;100.00;96969.16;5045725;28;20041;-75
2023/07/15 04:19:44;;;;;;;4.45;1.33;;;20.50;99.90;;;19.89;100.00;96965.41;5043477;28;20077;-76
2023/07/15 04:22:29;;;;;;;6.50;1.20;;;20.50;99.90;;;19.81;100.00;96963.47;5039344;28;20047;-75
2023/07/15 04:24:56;;;;;;;4.07;1.40;;;20.40;99.90;;;19.73;100.00;96976.47;5045859;28;20166;-75
2023/07/15 04:27:23;;;;;;;4.07;1.75;;;20.40;99.90;;;19.69;100.00;96978.56;5047994;28;20554;-76
2023/07/15 04:29:51;;;;;;;2.95;1.27;;;20.40;99.90;;;19.75;100.00;96980.66;5044746;28;20464;-75
2023/07/15 04:32:19;;;;;;;4.88;1.50;;;20.40;99.90;;;19.83;100.00;96982.59;5047397;28;20147;-76
2023/07/15 04:34:50;;;;;;;2.92;1.33;;;20.50;99.90;;;20.14;100.00;96975.41;5045258;28;20140;-76
2023/07/15 04:37:20;;;;;;;4.50;1.40;;;20.60;99.90;;;20.69;100.00;96987.97;5047421;28;20127;-76
2023/07/15 04:39:47;;;;;;;5.18;1.60;;;20.90;99.90;;;21.09;100.00;96971.84;5047233;28;20079;-76
2023/07/15 04:42:15;;;;;;;4.47;1.50;;;21.20;99.90;;;21.26;100.00;96959.69;5048406;28;20076;-76
2023/07/15 04:44:42;;;;;;;4.53;1.70;;;21.60;99.90;;;21.35;100.00;96950.06;5047556;28;20508;-76
2023/07/15 04:47:10;;;;;;;4.65;1.40;;;21.70;99.90;;;21.59;100.00;96940.75;5045437;28;20054;-76
2023/07/15 04:49:37;;;;;;;3.17;1.50;;;21.90;99.90;;;21.68;100.00;96948.59;5043915;28;20549;-76
2023/07/15 04:52:05;;;;;;;2.33;1.10;;;22.10;99.90;;;21.79;100.00;96944.09;5047155;28;20132;-76
2023/07/15 04:54:32;;;;;;;4.85;1.40;;;22.20;99.90;;;21.89;100.00;96936.91;5043317;28;20133;-75
2023/07/15 04:57:00;;;;;;;7.97;1.50;;;22.30;99.90;;;21.92;100.00;96932.16;5038810;28;21142;-76
2023/07/15 04:59:27;;;;;;;3.85;1.27;;;22.40;99.90;;;21.95;100.00;96924.91;5043062;28;20037;-76
2023/07/15 05:01:54;;;;;;;5.15;1.38;;;22.40;99.90;;;22.04;100.00;96924.81;5043337;28;20088;-77
2023/07/15 05:04:21;;;;;;;4.80;1.27;;;22.50;99.90;;;21.84;100.00;96925.97;5045928;28;20139;-77
2023/07/15 05:06:49;;;;;;;3.45;1.10;;;22.50;99.90;;;21.65;100.00;96951.56;5027057;28;20071;-77
2023/07/15 05:09:16;;;;;;;3.70;1.20;;;22.40;99.90;;;21.58;100.00;96957.59;5043545;28;20060;-77
2023/07/15 05:11:43;;;;;;;4.53;1.40;;;22.30;99.90;;;21.63;100.00;96961.44;5042296;28;20053;-77
2023/07/15 05:14:10;;;;;;;3.55;1.20;;;22.20;99.90;;;21.77;100.00;96957.44;5043957;28;20049;-77
2023/07/15 05:16:43;;;;;;;3.83;1.38;;;22.30;99.90;;;21.85;100.00;96944.31;5042097;28;20050;-77
2023/07/15 05:19:11;;;;;;;3.28;1.27;;;22.30;99.90;;;22.00;100.00;96946.41;5043750;28;20243;-77
2023/07/15 05:21:39;;;;;;;4.00;1.63;;;22.50;99.90;;;22.02;100.00;96952.38;5042314;28;20045;-77
2023/07/15 05:24:06;;;;;;;2.22;1.00;;;22.60;99.90;;;22.19;100.00;96951.53;5043770;28;20049;-76
2023/07/15 05:26:34;;;;;;;3.50;1.00;;;22.60;99.90;;;22.33;100.00;96955.47;5042743;28;20460;-76
2023/07/15 05:29:07;;;;;;;2.75;1.45;;;22.70;99.90;;;22.50;100.00;96951.94;5040955;28;20135;-77
2023/07/15 05:31:37;;;;;;;6.35;1.50;;;22.90;99.90;;;22.69;100.00;96942.97;5043387;28;20049;-76
2023/07/15 05:34:04;;;;;;;3.28;1.10;;;23.00;99.90;;;22.77;100.00;96947.47;5045889;28;20049;-76
2023/07/15 05:36:32;;;;;;;2.40;1.23;;;;;;;22.86;100.00;96961.59;5029598;28;20049;-77
2023/07/15 05:39:02;;;;;;;2.83;1.40;;;23.30;99.90;;;22.92;100.00;96961.78;5044342;28;20045;-77
2023/07/15 05:41:30;;;;;;;3.22;1.52;;;23.40;99.90;;;23.18;100.00;96947.69;5045543;28;20053;-77
2023/07/15 05:43:57;;;;;;;3.92;1.20;;;23.50;99.90;;;23.33;100.00;96946.09;5047849;28;20118;-79
2023/07/15 05:46:24;;;;;;;5.72;1.20;;;23.60;99.90;;;23.42;100.00;96946.94;5031780;28;20082;-79
2023/07/15 05:48:51;;;;;;;4.18;1.38;;;23.80;99.90;;;23.54;100.00;96939.53;5048726;28;20053;-78
2023/07/15 05:51:19;;;;;;;5.22;1.00;;;23.90;99.90;;;23.62;100.00;96941.38;5052754;28;20102;-80
2023/07/15 05:53:49;;;;;;;4.05;1.10;;;24.00;99.90;;;23.63;100.00;96943.00;5049501;28;20143;-78
2023/07/15 05:56:18;;;;;;;3.75;1.30;;;24.00;99.90;;;23.63;100.00;96940.34;5046331;28;20535;-78
2023/07/15 05:58:45;;;;;;;7.88;1.42;;;24.10;99.90;;;23.70;100.00;96933.44;5029860;28;20584;-78
2023/07/15 06:01:12;;;;;;;4.65;1.20;;;24.20;99.90;;;23.73;100.00;96936.56;5040444;28;20055;-76
2023/07/15 06:03:40;;;;;;;3.70;1.30;;;24.20;99.90;;;23.78;100.00;96941.41;5041114;28;20052;-77
2023/07/15 06:06:09;;;;;;;5.22;1.13;;;24.20;99.90;;;23.84;100.00;96943.41;5043820;28;20049;-77
2023/07/15 06:08:37;;;;;;;5.50;1.15;;;24.30;99.90;;;23.99;100.00;96951.53;5043565;28;20556;-75
2023/07/15 06:11:10;;;;;;;4.75;1.60;;;24.40;99.90;;;24.16;100.00;96952.38;5042096;28;20111;-75
2023/07/15 06:13:39;;;;;;;4.82;1.10;;;24.50;99.60;;;24.30;100.00;96956.19;5044608;28;20135;-75
2023/07/15 06:16:16;;;;;;;3.97;1.38;;;24.60;99.70;;;24.24;100.00;96952.38;5042302;28;20056;-75
2023/07/15 06:18:43;;;;;;;4.80;1.63;;;24.70;99.10;;;24.23;100.00;96949.91;5042681;28;20575;-75
2023/07/15 06:21:10;;;;;;;7.63;1.42;;;24.70;99.00;;;24.24;100.00;96944.41;5045981;28;20049;-75
2023/07/15 06:23:38;;;;;;;3.00;1.08;;;24.80;98.80;;;24.49;100.00;96949.72;5009686;28;20041;-75
2023/07/15 06:26:06;;;;;;;3.63;1.38;;;24.80;98.40;;;24.35;100.00;96937.94;5045302;28;20044;-74
2023/07/15 06:28:34;;;;;;;3.85;1.30;;;24.80;98.20;;;24.33;100.00;96930.16;5038484;28;20140;-74
2023/07/15 06:31:10;;;;;;;4.90;1.52;;;24.90;97.90;;;24.33;100.00;96929.31;5040831;28;20052;-74
2023/07/15 06:33:44;;;;;;;11.65;1.20;;;24.90;98.20;;;24.32;100.00;96925.84;5026508;28;20056;-74
2023/07/15 06:36:11;;;;;;;6.85;1.38;;;24.80;97.80;;;24.28;100.00;96927.19;5042525;28;20060;-74
2023/07/15 06:38:40;;;;;;;4.18;1.77;;;24.80;97.80;;;24.38;100.00;96919.88;5025712;28;20053;-75
2023/07/15 06:41:07;;;;;;;4.18;1.48;;;24.80;97.70;;;24.40;100.00;96931.16;5019452;28;20057;-75
2023/07/15 06:43:34;;;;;;;2.78;1.35;;;24.80;97.90;;;24.45;100.00;96921.84;5042581;28;20052;-76
2023/07/15 06:46:03;;;;;;;4.20;1.25;;;24.90;97.60;;;24.52;100.00;96928.16;5044788;28;20102;-75
2023/07/15 06:48:30;;;;;;;7.68;1.85;;;24.90;97.40;;;24.38;100.00;96927.00;5040660;28;20055;-74
2023/07/15 06:50:57;;;;;;;9.30;1.85;;;24.90;97.40;;;24.33;100.00;96937.28;5024516;28;20057;-75
2023/07/15 06:53:25;;;;;;;2.55;1.20;;;24.80;97.70;;;24.41;100.00;96939.94;5041688;28;20109;-74
2023/07/15 06:55:52;;;;;;;5.07;1.42;;;24.80;97.60;;;24.31;100.00;96948.03;5042142;28;20068;-75
2023/07/15 06:58:31;;;;;;;4.57;1.58;;;24.80;97.60;;;24.46;100.00;96960.66;5040410;28;20053;-75
2023/07/15 07:01:01;;;;;;;4.57;1.10;;;24.80;97.80;;;24.43;100.00;96949.38;5038643;28;20045;-75
2023/07/15 07:03:28;;;;;;;3.58;1.40;;;24.80;97.50;;;24.58;100.00;96954.03;5039509;28;20049;-74
2023/07/15 07:05:56;;;;;;;4.85;1.40;;;24.90;97.50;;;24.58;100.00;96957.50;5042291;28;20087;-75
2023/07/15 07:08:23;;;;;;;3.15;1.40;;;25.00;97.50;;;24.70;100.00;96965.09;5042517;28;20460;-75
2023/07/15 07:10:51;;;;;;;5.70;1.45;;;24.90;97.30;;;24.59;100.00;96964.47;5043815;28;20067;-74
2023/07/15 07:13:20;;;;;;;6.93;1.80;;;24.90;97.80;;;24.66;100.00;96959.31;5040757;28;20171;-74
2023/07/15 07:15:50;;;;;;;7.25;1.67;;;25.00;97.70;;;24.67;100.00;96963.63;5041539;28;20061;-74
2023/07/15 07:18:17;;;;;;;3.33;1.35;;;25.10;97.80;;;24.86;100.00;96954.47;5040339;28;20049;-74
2023/07/15 07:20:46;;;;;;;3.08;1.40;;;25.20;97.40;;;25.12;100.00;96961.34;5039051;28;20060;-74
2023/07/15 07:23:14;;;;;;;10.00;1.73;;;25.40;97.10;;;25.40;100.00;96959.91;5038913;28;20065;-74
2023/07/15 07:25:42;;;;;;;5.50;1.40;;;25.60;97.30;;;25.63;100.00;96951.97;5040190;28;20052;-75
2023/07/15 07:28:09;;;;;;;4.10;1.55;;;25.90;96.80;;;25.95;100.00;96936.84;5037517;28;20045;-74
2023/07/15 07:30:36;;;;;;;7.95;1.50;;;26.10;96.40;;;26.28;100.00;96934.75;5024334;28;20049;-73
2023/07/15 07:33:03;;;;;;;8.55;1.45;;;26.30;96.50;;;26.50;100.00;96927.75;5038528;28;20049;-73
2023/07/15 07:35:31;;;;;;;2.00;1.10;;;;;;;26.73;100.00;96931.34;5039778;28;20044;-74
2023/07/15 07:37:58;;;;;;;9.02;1.60;;;26.90;95.90;;;26.35;100.00;96944.69;5022352;28;20130;-75
2023/07/15 07:40:26;;;;;;;3.55;1.45;;;26.90;95.50;;;26.19;100.00;96950.97;5042125;28;20057;-74
2023/07/15 07:42:53;;;;;;;6.40;1.25;;;26.80;95.30;;;26.45;100.00;96947.91;5041853;28;20049;-74
2023/07/15 07:45:21;;;;;;;4.78;1.40;;;26.90;95.70;;;26.32;100.00;96964.50;5044896;28;20085;-75
2023/07/15 07:47:48;;;;;;;7.93;1.60;;;26.90;95.60;;;26.37;100.00;96978.09;5045113;28;20128;-75
2023/07/15 07:50:16;;;;;;;3.95;1.50;;;26.80;95.50;;;26.32;100.00;96987.59;5042863;28;20056;-75
2023/07/15 07:52:43;;;;;;;4.22;1.27;;;26.80;95.70;;;26.86;100.00;97008.75;5038780;28;20057;-76
2023/07/15 07:55:10;;;;;;;8.40;1.90;;;26.90;95.40;;;26.71;100.00;96990.13;5023245;28;20076;-72
2023/07/15 07:57:37;;;;;;;10.48;1.85;;;27.00;95.60;;;26.35;100.00;97012.03;5041804;28;20398;-75
2023/07/15 08:00:05;;;;;;;4.95;1.38;;;26.80;95.70;;;26.27;100.00;97010.28;5044467;28;20049;-75
2023/07/15 08:02:35;;;;;;;3.95;1.70;;;26.40;95.90;;;26.11;100.00;97017.53;5031054;28;20128;-75
2023/07/15 08:05:04;;;;;;;6.22;1.48;;;26.20;96.30;;;26.13;100.00;97018.19;5044734;28;20049;-75
2023/07/15 08:07:31;;;;;;;4.60;1.50;;;26.20;97.00;;;25.82;100.00;97017.19;5061498;28;20516;-74
2023/07/15 08:09:59;;;;;;;4.15;1.40;;;26.30;96.40;;;25.84;100.00;97012.53;5045697;28;20056;-75
2023/07/15 08:12:26;;;;;;;3.72;1.30;;;26.10;96.40;;;26.08;100.00;97008.06;5040074;28;20517;-72
2023/07/15 08:14:53;;;;;;;4.30;1.58;;;26.30;97.10;;;26.05;100.00;97001.28;5042875;28;20045;-74
2023/07/15 08:17:20;;;;;;;3.78;1.40;;;26.40;96.80;;;26.35;100.00;97001.38;5041811;28;20057;-75
2023/07/15 08:19:47;;;;;;;7.78;1.73;;;26.50;97.00;;;26.67;100.00;96991.50;5047127;28;20461;-74
2023/07/15 08:22:14;;;;;;;4.25;1.73;;;26.90;97.10;;;26.63;100.00;96983.03;5058593;28;20041;-75
2023/07/15 08:24:41;;;;;;;7.53;1.73;;;27.00;96.60;;;26.26;100.00;96999.78;5043159;28;20057;-75
2023/07/15 08:27:09;;;;;;;6.85;1.75;;;26.70;96.20;;;26.52;100.00;96979.94;5059520;28;20053;-75
2023/07/15 08:29:36;;;;;;;5.70;1.60;;;26.70;97.00;;;26.95;100.00;96982.88;5024501;28;20140;-75
2023/07/15 08:32:03;;;;;;;8.93;1.88;;;27.00;97.10;;;26.98;100.00;97001.16;5042124;28;20053;-75
2023/07/15 08:34:32;;;;;;;5.05;1.45;;;27.00;97.10;;;26.94;100.00;96984.72;5040558;28;20107;-74
2023/07/15 08:36:59;;;;;;;6.20;1.85;;;27.20;97.70;;;26.63;100.00;96995.50;5042093;28;20041;-75
2023/07/15 08:39:27;;;;;;;6.97;1.90;;;27.10;97.40;;;26.24;100.00;97002.63;5036474;28;20084;-75
2023/07/15 08:41:54;;;;;;;6.30;1.50;;;26.70;97.30;;;25.80;100.00;97005.88;5042190;28;20164;-74
2023/07/15 08:44:22;;;;;;;6.30;2.38;;;26.50;98.70;;;25.75;100.00;97010.91;5055943;28;20497;-74
2023/07/15 08:46:51;;;;;;;6.32;2.42;;;26.10;98.90;;;25.79;100.00;97006.88;5043825;28;20163;-74
2023/07/15 08:49:22;;;;;;;7.43;2.20;;;26.10;99.70;;;25.72;100.00;97023.72;5043284;28;20975;-75
2023/07/15 08:51:49;;;;;;;3.77;2.13;;;25.90;99.60;;;25.56;100.00;97029.94;5043167;28;20126;-74
2023/07/15 08:54:17;;;;;;;6.03;2.10;;;25.90;99.90;;;25.81;100.00;97030.63;5039213;28;20044;-75
2023/07/15 08:56:44;;;;;;;7.60;2.53;;;25.90;99.90;;;25.75;100.00;97026.00;5041521;28;20155;-74
2023/07/15 08:59:15;;;;;;;7.95;2.35;;;26.00;99.90;;;25.63;100.00;97038.88;5027927;28;20072;-75
2023/07/15 09:01:42;;;;;;;6.18;1.95;;;25.90;99.90;;;25.72;100.00;97040.47;5043737;28;20057;-75
2023/07/15 09:04:11;;;;;;;6.32;2.42;;;26.00;99.90;;;25.80;100.00;97026.34;5026686;28;20452;-75
2023/07/15 09:06:39;;;;;;;4.47;1.92;;;26.00;99.90;;;25.71;100.00;97046.00;5039567;28;20046;-75
2023/07/15 09:09:07;;;;;;;5.20;2.28;;;25.90;99.90;;;25.63;100.00;97049.50;5041502;28;20045;-75
2023/07/15 09:11:39;;;;;;;5.35;2.47;;;25.80;99.90;;;25.72;100.00;97040.47;5043249;28;20088;-75
2023/07/15 09:14:16;;;;;;;8.77;2.00;;;25.70;99.90;;;25.47;100.00;97034.44;5036345;28;20059;-76
2023/07/15 09:16:43;;;;;;;8.30;1.83;;;25.60;99.90;;;25.33;100.00;97041.31;5040290;28;20132;-75
2023/07/15 09:19:11;;;;;;;11.52;2.40;;;25.50;99.90;;;25.23;100.00;97067.25;5038514;28;20057;-76
2023/07/15 09:21:52;;;;;;;11.13;2.97;;;25.40;99.90;;;24.89;100.00;97078.91;5039694;28;20144;-75
2023/07/15 09:24:20;;;;;;;14.30;3.85;;;25.30;99.90;;;24.83;100.00;97077.72;5024063;28;20072;-75
2023/07/15 09:26:51;;;;;;;35.03;4.35;;;25.30;99.90;;;24.73;100.00;97084.22;5037881;28;20144;-75
2023/07/15 09:29:22;;;;;;;10.82;2.97;;;25.20;99.90;;;24.50;100.00;97078.75;5044677;28;21858;-75
2023/07/15 09:31:49;;;;;;;7.88;2.65;;;25.10;99.90;;;24.48;100.00;97101.97;5040626;28;20627;-75
2023/07/15 09:34:21;;;;;;;10.77;2.50;;;25.00;99.90;;;24.70;100.00;97077.44;5023815;28;20123;-74
2023/07/15 09:36:48;;;;;;;8.65;2.13;;;24.90;99.90;;;24.52;100.00;97072.28;5040316;28;20065;-75
2023/07/15 09:39:22;;;;;;;9.77;2.42;;;25.00;99.90;;;24.74;100.00;97051.34;5023530;28;20051;-74
2023/07/15 09:42:05;;;;;;;7.25;2.42;;;25.10;99.90;;;24.76;100.00;97034.28;5037893;28;20090;-75
2023/07/15 09:44:45;;;;;;;13.00;2.30;;;25.20;99.90;;;24.87;100.00;97045.56;5024698;28;20136;-75
2023/07/15 09:47:12;;;;;;;5.88;2.00;;;25.20;99.90;;;24.82;100.00;97062.81;5043812;28;20477;-75
2023/07/15 09:49:39;;;;;;;5.85;2.25;;;25.10;99.90;;;24.61;100.00;97075.75;5040671;28;20048;-75
2023/07/15 09:52:07;;;;;;;5.10;2.30;;;24.90;99.90;;;24.50;100.00;97084.88;5055917;28;20052;-74
2023/07/15 09:54:35;;;;;;;5.80;2.50;;;24.80;99.90;;;24.24;100.00;97102.69;5041897;28;20474;-75
2023/07/15 09:57:12;;;;;;;6.80;2.03;;;24.70;99.90;;;24.34;100.00;97093.63;5042019;28;20069;-75
2023/07/15 09:59:48;;;;;;;5.55;2.67;;;24.60;99.90;;;24.10;100.00;97096.22;5040746;28;20386;-74
2023/07/15 10:02:41;;;;;;;8.65;2.88;;;24.50;99.90;;;23.69;100.00;97107.47;5040084;28;20037;-76
2023/07/15 10:05:13;;;;;;;7.28;2.80;;;24.40;99.90;;;23.44;100.00;97098.56;5043081;28;20048;-76
2023/07/15 10:07:43;;;;;;;;;;;24.30;99.90;;;23.21;100.00;97108.06;5056616;28;20168;-75
2023/07/15 10:10:11;;;;;;;3.95;2.28;;;24.00;99.90;;;22.85;100.00;97113.38;5022588;28;20020;-75
2023/07/15 10:12:39;;;;;;;8.48;3.55;;;23.80;99.90;;;22.45;100.00;97106.78;5043907;28;20699;-77
2023/07/15 10:15:07;;;;;;;14.50;3.75;;;23.50;99.90;;;22.25;100.00;97100.81;5028298;28;20472;-81
2023/07/15 10:17:36;;;;;;;8.93;3.20;;;23.30;99.90;;;22.30;100.00;97107.28;5024225;28;20788;-78
2023/07/15 10:20:11;;;;;;;8.13;2.88;;;23.20;99.90;;;22.44;100.00;97128.91;5028692;28;20041;-79